sensor_id;sensor_type;location;lat;lon;timestamp;pressure;altitude;pressure_sealevel;temperature;humidity
43071;BME280;36278;47.952;21.714;2023-12-20T00:00:54;100622.41;;;0.49;100.00
43071;BME280;36278;47.952;21.714;2023-12-20T00:03:19;100618.44;;;0.36;100.00
43071;BME280;36278;47.952;21.714;2023-12-20T00:05:45;100619.25;;;0.38;100.00
43071;BME280;36278;47.952;21.714;2023-12-20T00:08:11;100617.66;;;0.34;100.00
43071;BME280;36278;47.952;21.714;2023-12-20T00:10:36;100613.03;;;0.44;100.00
43071;BME280;36278;47.952;21.714;2023-12-20T00:13:02;100603.91;;;0.59;100.00
43071;BME280;36278;47.952;21.714;2023-12-20T00:15:27;100595.22;;;0.58;100.00
43071;BME280;36278;47.952;21.714;2023-12-20T00:17:53;100597.22;;;0.50;100.00
43071;BME280;36278;47.952;21.714;2023-12-20T00:20:18;100584.84;;;0.27;100.00
43071;BME280;36278;47.952;21.714;2023-12-20T00:22:44;100582.31;;;0.24;100.00
43071;BME280;36278;47.952;21.714;2023-12-20T00:25:09;100583.28;;;0.21;100.00
43071;BME280;36278;47.952;21.714;2023-12-20T00:27:35;100571.09;;;0.22;100.00
43071;BME280;36278;47.952;21.714;2023-12-20T00:30:00;100572.69;;;0.27;100.00
43071;BME280;36278;47.952;21.714;2023-12-20T00:32:26;100560.16;;;0.11;100.00
43071;BME280;36278;47.952;21.714;2023-12-20T00:34:51;100554.84;;;0.14;100.00
43071;BME280;36278;47.952;21.714;2023-12-20T00:37:17;100556.53;;;0.15;100.00
43071;BME280;36278;47.952;21.714;2023-12-20T00:39:42;100549.22;;;-0.02;100.00
43071;BME280;36278;47.952;21.714;2023-12-20T00:42:07;100550.06;;;-0.02;100.00
43071;BME280;36278;47.952;21.714;2023-12-20T00:44:33;100547.38;;;0.02;100.00
43071;BME280;36278;47.952;21.714;2023-12-20T00:46:58;100544.69;;;0.05;100.00
43071;BME280;36278;47.952;21.714;2023-12-20T00:49:24;100536.47;;;0.18;100.00
43071;BME280;36278;47.952;21.714;2023-12-20T00:51:49;100534.16;;;0.08;100.00
43071;BME280;36278;47.952;21.714;2023-12-20T00:54:16;100532.41;;;0.10;100.00
43071;BME280;36278;47.952;21.714;2023-12-20T00:56:41;100520.66;;;0.24;100.00
43071;BME280;36278;47.952;21.714;2023-12-20T00:59:07;100522.41;;;0.24;100.00
43071;BME280;36278;47.952;21.714;2023-12-20T01:01:32;100521.28;;;0.33;100.00
43071;BME280;36278;47.952;21.714;2023-12-20T01:03:58;100522.84;;;0.38;100.00
43071;BME280;36278;47.952;21.714;2023-12-20T01:06:24;100507.19;;;0.38;100.00
43071;BME280;36278;47.952;21.714;2023-12-20T01:08:50;100503.91;;;0.33;100.00
43071;BME280;36278;47.952;21.714;2023-12-20T01:11:15;100495.41;;;0.26;100.00
43071;BME280;36278;47.952;21.714;2023-12-20T01:13:41;100492.81;;;0.26;100.00
43071;BME280;36278;47.952;21.714;2023-12-20T01:16:10;100495.25;;;0.31;100.00
43071;BME280;36278;47.952;21.714;2023-12-20T01:18:35;100497.63;;;0.39;100.00
43071;BME280;36278;47.952;21.714;2023-12-20T01:21:02;100488.88;;;0.41;100.00
43071;BME280;36278;47.952;21.714;2023-12-20T01:23:28;100486.28;;;0.41;100.00
43071;BME280;36278;47.952;21.714;2023-12-20T01:25:53;100477.75;;;0.36;100.00
43071;BME280;36278;47.952;21.714;2023-12-20T01:28:19;100468.13;;;0.38;100.00
43071;BME280;36278;47.952;21.714;2023-12-20T01:30:44;100474.09;;;0.42;100.00
43071;BME280;36278;47.952;21.714;2023-12-20T01:33:10;100477.56;;;0.42;100.00
43071;BME280;36278;47.952;21.714;2023-12-20T01:35:35;100474.97;;;0.42;100.00
43071;BME280;36278;47.952;21.714;2023-12-20T01:38:01;100462.16;;;0.35;100.00
43071;BME280;36278;47.952;21.714;2023-12-20T01:40:26;100462.22;;;0.33;100.00
43071;BME280;36278;47.952;21.714;2023-12-20T01:43:06;100452.34;;;0.43;100.00
43071;BME280;36278;47.952;21.714;2023-12-20T01:45:32;100455.38;;;0.57;100.00
43071;BME280;36278;47.952;21.714;2023-12-20T01:47:58;100438.41;;;0.44;100.00
43071;BME280;36278;47.952;21.714;2023-12-20T01:50:25;100448.00;;;0.43;100.00
43071;BME280;36278;47.952;21.714;2023-12-20T01:52:51;100443.25;;;0.28;100.00
43071;BME280;36278;47.952;21.714;2023-12-20T01:55:19;100449.78;;;0.13;100.00
43071;BME280;36278;47.952;21.714;2023-12-20T01:57:45;100447.19;;;0.13;100.00
43071;BME280;36278;47.952;21.714;2023-12-20T02:00:13;100446.22;;;0.16;100.00
43071;BME280;36278;47.952;21.714;2023-12-20T02:02:40;100437.63;;;0.14;100.00
43071;BME280;36278;47.952;21.714;2023-12-20T02:05:10;100437.56;;;0.15;100.00
43071;BME280;36278;47.952;21.714;2023-12-20T02:07:36;100436.78;;;0.13;100.00
43071;BME280;36278;47.952;21.714;2023-12-20T02:10:02;100425.56;;;0.11;100.00
43071;BME280;36278;47.952;21.714;2023-12-20T02:12:30;100404.22;;;-0.02;100.00
43071;BME280;36278;47.952;21.714;2023-12-20T02:14:55;100401.56;;;0.02;100.00
43071;BME280;36278;47.952;21.714;2023-12-20T02:17:22;100409.09;;;-0.19;100.00
43071;BME280;36278;47.952;21.714;2023-12-20T02:19:47;100400.31;;;-0.15;100.00
43071;BME280;36278;47.952;21.714;2023-12-20T02:22:13;100404.59;;;0.14;100.00
43071;BME280;36278;47.952;21.714;2023-12-20T02:24:39;100400.19;;;0.18;100.00
43071;BME280;36278;47.952;21.714;2023-12-20T02:27:08;100406.03;;;0.24;100.00
43071;BME280;36278;47.952;21.714;2023-12-20T02:29:34;100398.97;;;0.28;100.00
43071;BME280;36278;47.952;21.714;2023-12-20T02:32:00;100378.88;;;0.32;100.00
43071;BME280;36278;47.952;21.714;2023-12-20T02:34:26;100386.13;;;0.48;100.00
43071;BME280;36278;47.952;21.714;2023-12-20T02:36:51;100371.94;;;0.31;100.00
43071;BME280;36278;47.952;21.714;2023-12-20T02:39:18;100375.03;;;0.43;100.00
43071;BME280;36278;47.952;21.714;2023-12-20T02:41:44;100371.06;;;0.32;100.00
43071;BME280;36278;47.952;21.714;2023-12-20T02:44:10;100371.88;;;0.34;100.00
43071;BME280;36278;47.952;21.714;2023-12-20T02:46:35;100369.94;;;0.12;100.00
43071;BME280;36278;47.952;21.714;2023-12-20T02:49:01;100363.03;;;-0.15;100.00
43071;BME280;36278;47.952;21.714;2023-12-20T02:51:26;100371.75;;;-0.16;100.00
43071;BME280;36278;47.952;21.714;2023-12-20T02:53:52;100358.75;;;-0.18;100.00
43071;BME280;36278;47.952;21.714;2023-12-20T02:56:17;100354.91;;;-0.34;100.00
43071;BME280;36278;47.952;21.714;2023-12-20T02:58:43;100355.06;;;-0.11;100.00
43071;BME280;36278;47.952;21.714;2023-12-20T03:01:08;100358.59;;;-0.13;100.00
43071;BME280;36278;47.952;21.714;2023-12-20T03:03:34;100344.81;;;-0.17;100.00
43071;BME280;36278;47.952;21.714;2023-12-20T03:05:59;100340.50;;;-0.16;100.00
43071;BME280;36278;47.952;21.714;2023-12-20T03:08:25;100322.22;;;-0.15;100.00
43071;BME280;36278;47.952;21.714;2023-12-20T03:10:50;100331.25;;;0.02;100.00
43071;BME280;36278;47.952;21.714;2023-12-20T03:13:16;100330.09;;;0.10;100.00
43071;BME280;36278;47.952;21.714;2023-12-20T03:15:42;100327.47;;;0.10;100.00
43071;BME280;36278;47.952;21.714;2023-12-20T03:18:07;100321.13;;;-0.08;100.00
43071;BME280;36278;47.952;21.714;2023-12-20T03:20:33;100314.16;;;-0.07;100.00
43071;BME280;36278;47.952;21.714;2023-12-20T03:23:02;100310.41;;;0.02;100.00
43071;BME280;36278;47.952;21.714;2023-12-20T03:25:28;100305.09;;;0.05;100.00
43071;BME280;36278;47.952;21.714;2023-12-20T03:27:53;100300.19;;;-0.05;100.00
43071;BME280;36278;47.952;21.714;2023-12-20T03:30:19;100304.72;;;-0.11;100.00
43071;BME280;36278;47.952;21.714;2023-12-20T03:32:45;100295.94;;;-0.07;100.00
43071;BME280;36278;47.952;21.714;2023-12-20T03:35:10;100292.19;;;0.02;100.00
43071;BME280;36278;47.952;21.714;2023-12-20T03:37:36;100293.09;;;0.01;100.00
43071;BME280;36278;47.952;21.714;2023-12-20T03:40:02;100288.81;;;-0.02;100.00
43071;BME280;36278;47.952;21.714;2023-12-20T03:42:28;100286.56;;;-0.13;100.00
43071;BME280;36278;47.952;21.714;2023-12-20T03:44:53;100285.41;;;-0.31;100.00
43071;BME280;36278;47.952;21.714;2023-12-20T03:47:19;100290.59;;;-0.31;100.00
43071;BME280;36278;47.952;21.714;2023-12-20T03:49:45;100291.88;;;-0.44;100.00
43071;BME280;36278;47.952;21.714;2023-12-20T03:52:10;100283.56;;;-0.55;100.00
43071;BME280;36278;47.952;21.714;2023-12-20T03:54:36;100292.91;;;-0.49;100.00
43071;BME280;36278;47.952;21.714;2023-12-20T03:57:01;100290.81;;;-0.65;100.00
43071;BME280;36278;47.952;21.714;2023-12-20T03:59:27;100294.16;;;-0.61;100.00
43071;BME280;36278;47.952;21.714;2023-12-20T04:01:52;100299.53;;;-0.67;100.00
43071;BME280;36278;47.952;21.714;2023-12-20T04:04:18;100282.94;;;-0.63;100.00
43071;BME280;36278;47.952;21.714;2023-12-20T04:06:44;100287.91;;;-0.55;100.00
43071;BME280;36278;47.952;21.714;2023-12-20T04:09:10;100277.03;;;-0.40;100.00
43071;BME280;36278;47.952;21.714;2023-12-20T04:11:36;100287.84;;;-0.26;100.00
43071;BME280;36278;47.952;21.714;2023-12-20T04:14:02;100287.75;;;-0.23;100.00
43071;BME280;36278;47.952;21.714;2023-12-20T04:16:27;100284.94;;;-0.17;100.00
43071;BME280;36278;47.952;21.714;2023-12-20T04:18:53;100277.00;;;-0.12;100.00
43071;BME280;36278;47.952;21.714;2023-12-20T04:21:18;100265.06;;;-0.19;100.00
43071;BME280;36278;47.952;21.714;2023-12-20T04:23:44;100274.41;;;-0.12;100.00
43071;BME280;36278;47.952;21.714;2023-12-20T04:26:10;100264.88;;;-0.13;100.00
43071;BME280;36278;47.952;21.714;2023-12-20T04:28:35;100275.69;;;0.01;100.00
43071;BME280;36278;47.952;21.714;2023-12-20T04:31:01;100280.75;;;0.06;100.00
43071;BME280;36278;47.952;21.714;2023-12-20T04:33:26;100270.00;;;0.16;100.00
43071;BME280;36278;47.952;21.714;2023-12-20T04:35:52;100266.69;;;0.11;100.00
43071;BME280;36278;47.952;21.714;2023-12-20T04:38:17;100274.31;;;0.16;100.00
43071;BME280;36278;47.952;21.714;2023-12-20T04:40:43;100270.72;;;0.20;100.00
43071;BME280;36278;47.952;21.714;2023-12-20T04:43:08;100266.41;;;0.19;100.00
43071;BME280;36278;47.952;21.714;2023-12-20T04:45:36;100246.25;;;0.24;100.00
43071;BME280;36278;47.952;21.714;2023-12-20T04:48:02;100250.66;;;0.22;100.00
43071;BME280;36278;47.952;21.714;2023-12-20T04:50:28;100262.06;;;0.19;100.00
43071;BME280;36278;47.952;21.714;2023-12-20T04:52:53;100266.78;;;0.08;100.00
43071;BME280;36278;47.952;21.714;2023-12-20T04:55:19;100261.28;;;0.16;100.00
43071;BME280;36278;47.952;21.714;2023-12-20T04:57:45;100260.41;;;0.17;100.00
43071;BME280;36278;47.952;21.714;2023-12-20T05:00:11;100268.88;;;-0.03;100.00
43071;BME280;36278;47.952;21.714;2023-12-20T05:02:37;100267.00;;;-0.24;100.00
43071;BME280;36278;47.952;21.714;2023-12-20T05:05:04;100270.34;;;-0.21;100.00
43071;BME280;36278;47.952;21.714;2023-12-20T05:07:30;100266.72;;;-0.17;100.00
43071;BME280;36278;47.952;21.714;2023-12-20T05:09:55;100265.03;;;-0.18;100.00
43071;BME280;36278;47.952;21.714;2023-12-20T05:12:21;100258.91;;;-0.17;100.00
43071;BME280;36278;47.952;21.714;2023-12-20T05:14:46;100249.22;;;-0.12;100.00
43071;BME280;36278;47.952;21.714;2023-12-20T05:17:12;100254.84;;;-0.25;100.00
43071;BME280;36278;47.952;21.714;2023-12-20T05:19:37;100256.16;;;-0.39;100.00
43071;BME280;36278;47.952;21.714;2023-12-20T05:22:03;100254.13;;;-0.29;100.00
43071;BME280;36278;47.952;21.714;2023-12-20T05:24:28;100249.75;;;-0.29;100.00
43071;BME280;36278;47.952;21.714;2023-12-20T05:26:54;100248.91;;;-0.29;100.00
43071;BME280;36278;47.952;21.714;2023-12-20T05:29:20;100243.59;;;-0.26;100.00
43071;BME280;36278;47.952;21.714;2023-12-20T05:31:46;100247.03;;;-0.25;100.00
43071;BME280;36278;47.952;21.714;2023-12-20T05:34:11;100239.94;;;-0.20;100.00
43071;BME280;36278;47.952;21.714;2023-12-20T05:36:37;100233.00;;;-0.20;100.00
43071;BME280;36278;47.952;21.714;2023-12-20T05:39:04;100223.63;;;-0.25;100.00
43071;BME280;36278;47.952;21.714;2023-12-20T05:41:33;100222.78;;;-0.26;100.00
43071;BME280;36278;47.952;21.714;2023-12-20T05:43:59;100207.72;;;-0.16;100.00
43071;BME280;36278;47.952;21.714;2023-12-20T05:46:24;100205.47;;;-0.02;100.00
43071;BME280;36278;47.952;21.714;2023-12-20T05:48:50;100205.84;;;-0.13;100.00
43071;BME280;36278;47.952;21.714;2023-12-20T05:51:17;100202.47;;;-0.15;100.00
43071;BME280;36278;47.952;21.714;2023-12-20T05:53:44;100209.44;;;-0.17;100.00
43071;BME280;36278;47.952;21.714;2023-12-20T05:56:10;100204.94;;;-0.12;100.00
43071;BME280;36278;47.952;21.714;2023-12-20T05:58:36;100201.25;;;-0.05;100.00
43071;BME280;36278;47.952;21.714;2023-12-20T06:01:04;100194.81;;;0.06;100.00
43071;BME280;36278;47.952;21.714;2023-12-20T06:03:30;100195.25;;;0.18;100.00
43071;BME280;36278;47.952;21.714;2023-12-20T06:05:55;100187.78;;;0.33;100.00
43071;BME280;36278;47.952;21.714;2023-12-20T06:08:21;100191.25;;;0.33;100.00
43071;BME280;36278;47.952;21.714;2023-12-20T06:10:46;100188.59;;;0.35;100.00
43071;BME280;36278;47.952;21.714;2023-12-20T06:13:12;100174.78;;;0.33;100.00
43071;BME280;36278;47.952;21.714;2023-12-20T06:15:39;100182.00;;;0.24;100.00
43071;BME280;36278;47.952;21.714;2023-12-20T06:18:08;100175.03;;;0.25;100.00
43071;BME280;36278;47.952;21.714;2023-12-20T06:20:33;100186.53;;;0.19;100.00
43071;BME280;36278;47.952;21.714;2023-12-20T06:22:59;100182.09;;;-0.04;100.00
43071;BME280;36278;47.952;21.714;2023-12-20T06:25:25;100195.19;;;-0.05;100.00
43071;BME280;36278;47.952;21.714;2023-12-20T06:27:50;100186.31;;;0.01;100.00
43071;BME280;36278;47.952;21.714;2023-12-20T06:30:16;100182.00;;;-0.01;100.00
43071;BME280;36278;47.952;21.714;2023-12-20T06:32:42;100176.97;;;-0.05;100.00
43071;BME280;36278;47.952;21.714;2023-12-20T06:35:09;100177.00;;;-0.07;100.00
43071;BME280;36278;47.952;21.714;2023-12-20T06:37:34;100173.44;;;-0.04;100.00
43071;BME280;36278;47.952;21.714;2023-12-20T06:40:00;100170.63;;;0.02;100.00
43071;BME280;36278;47.952;21.714;2023-12-20T06:42:26;100182.88;;;0.00;100.00
43071;BME280;36278;47.952;21.714;2023-12-20T06:44:52;100177.84;;;0.19;100.00
43071;BME280;36278;47.952;21.714;2023-12-20T06:47:17;100167.31;;;0.22;100.00
43071;BME280;36278;47.952;21.714;2023-12-20T06:49:43;100176.28;;;0.38;100.00
43071;BME280;36278;47.952;21.714;2023-12-20T06:52:08;100166.72;;;0.39;100.00
43071;BME280;36278;47.952;21.714;2023-12-20T06:54:34;100167.53;;;0.41;100.00
43071;BME280;36278;47.952;21.714;2023-12-20T06:57:00;100152.53;;;0.22;100.00
43071;BME280;36278;47.952;21.714;2023-12-20T06:59:25;100150.50;;;0.31;100.00
43071;BME280;36278;47.952;21.714;2023-12-20T07:01:51;100142.75;;;0.29;100.00
43071;BME280;36278;47.952;21.714;2023-12-20T07:04:17;100140.03;;;0.32;100.00
43071;BME280;36278;47.952;21.714;2023-12-20T07:06:47;100141.28;;;0.45;100.00
43071;BME280;36278;47.952;21.714;2023-12-20T07:09:13;100137.81;;;0.45;100.00
43071;BME280;36278;47.952;21.714;2023-12-20T07:11:39;100129.00;;;0.49;100.00
43071;BME280;36278;47.952;21.714;2023-12-20T07:14:05;100129.38;;;0.38;100.00
43071;BME280;36278;47.952;21.714;2023-12-20T07:16:30;100100.84;;;0.35;100.00
43071;BME280;36278;47.952;21.714;2023-12-20T07:18:56;100093.09;;;0.34;100.00
43071;BME280;36278;47.952;21.714;2023-12-20T07:21:22;100114.44;;;0.20;100.00
43071;BME280;36278;47.952;21.714;2023-12-20T07:23:48;100130.81;;;-0.02;100.00
43071;BME280;36278;47.952;21.714;2023-12-20T07:26:13;100141.22;;;-0.02;100.00
43071;BME280;36278;47.952;21.714;2023-12-20T07:28:39;100154.50;;;-0.08;100.00
43071;BME280;36278;47.952;21.714;2023-12-20T07:31:05;100171.03;;;-0.35;100.00
43071;BME280;36278;47.952;21.714;2023-12-20T07:33:31;100160.72;;;-0.38;100.00
43071;BME280;36278;47.952;21.714;2023-12-20T07:35:56;100162.28;;;-0.33;100.00
43071;BME280;36278;47.952;21.714;2023-12-20T07:38:22;100163.38;;;-0.40;100.00
43071;BME280;36278;47.952;21.714;2023-12-20T07:40:47;100168.53;;;-0.38;100.00
43071;BME280;36278;47.952;21.714;2023-12-20T07:43:13;100170.78;;;-0.28;100.00
43071;BME280;36278;47.952;21.714;2023-12-20T07:45:38;100159.78;;;-0.11;100.00
43071;BME280;36278;47.952;21.714;2023-12-20T07:48:06;100162.28;;;0.17;100.00
43071;BME280;36278;47.952;21.714;2023-12-20T07:50:31;100155.16;;;-0.03;100.00
43071;BME280;36278;47.952;21.714;2023-12-20T07:52:58;100151.81;;;-0.06;100.00
43071;BME280;36278;47.952;21.714;2023-12-20T07:55:26;100144.69;;;-0.01;100.00
43071;BME280;36278;47.952;21.714;2023-12-20T07:57:51;100151.13;;;-0.11;100.00
43071;BME280;36278;47.952;21.714;2023-12-20T08:00:17;100143.25;;;-0.10;100.00
43071;BME280;36278;47.952;21.714;2023-12-20T08:02:43;100145.38;;;0.04;100.00
43071;BME280;36278;47.952;21.714;2023-12-20T08:05:08;100151.50;;;0.03;100.00
43071;BME280;36278;47.952;21.714;2023-12-20T08:07:34;100168.41;;;0.16;100.00
43071;BME280;36278;47.952;21.714;2023-12-20T08:10:00;100145.84;;;-0.35;100.00
43071;BME280;36278;47.952;21.714;2023-12-20T08:12:25;100160.28;;;-0.24;100.00
43071;BME280;36278;47.952;21.714;2023-12-20T08:14:53;100150.47;;;-0.18;100.00
43071;BME280;36278;47.952;21.714;2023-12-20T08:17:18;100152.88;;;-0.12;100.00
43071;BME280;36278;47.952;21.714;2023-12-20T08:19:44;100147.25;;;0.01;100.00
43071;BME280;36278;47.952;21.714;2023-12-20T08:22:09;100141.41;;;-0.06;100.00
43071;BME280;36278;47.952;21.714;2023-12-20T08:24:35;100149.25;;;0.17;100.00
43071;BME280;36278;47.952;21.714;2023-12-20T08:27:00;100145.06;;;-0.12;100.00
43071;BME280;36278;47.952;21.714;2023-12-20T08:29:26;100148.78;;;-0.19;100.00
43071;BME280;36278;47.952;21.714;2023-12-20T08:31:53;100139.06;;;-0.14;100.00
43071;BME280;36278;47.952;21.714;2023-12-20T08:34:19;100149.94;;;-0.28;100.00
43071;BME280;36278;47.952;21.714;2023-12-20T08:36:44;100151.00;;;-0.33;100.00
43071;BME280;36278;47.952;21.714;2023-12-20T08:39:10;100160.47;;;-0.31;100.00
43071;BME280;36278;47.952;21.714;2023-12-20T08:41:36;100148.06;;;-0.22;100.00
43071;BME280;36278;47.952;21.714;2023-12-20T08:44:02;100148.91;;;-0.22;100.00
43071;BME280;36278;47.952;21.714;2023-12-20T08:46:28;100138.94;;;-0.11;100.00
43071;BME280;36278;47.952;21.714;2023-12-20T08:48:54;100140.63;;;-0.08;100.00
43071;BME280;36278;47.952;21.714;2023-12-20T08:51:20;100134.50;;;-0.07;100.00
43071;BME280;36278;47.952;21.714;2023-12-20T08:53:48;100124.84;;;0.20;100.00
43071;BME280;36278;47.952;21.714;2023-12-20T08:56:14;100133.56;;;0.19;100.00
43071;BME280;36278;47.952;21.714;2023-12-20T08:58:40;100134.69;;;0.12;100.00
43071;BME280;36278;47.952;21.714;2023-12-20T09:01:05;100132.44;;;0.26;100.00
43071;BME280;36278;47.952;21.714;2023-12-20T09:03:31;100134.72;;;0.35;100.00
43071;BME280;36278;47.952;21.714;2023-12-20T09:05:57;100133.25;;;0.51;100.00
43071;BME280;36278;47.952;21.714;2023-12-20T09:08:22;100131.19;;;0.60;100.00
43071;BME280;36278;47.952;21.714;2023-12-20T09:10:47;100114.34;;;0.68;100.00
43071;BME280;36278;47.952;21.714;2023-12-20T09:13:13;100115.34;;;0.88;100.00
43071;BME280;36278;47.952;21.714;2023-12-20T09:15:38;100121.59;;;0.83;100.00
43071;BME280;36278;47.952;21.714;2023-12-20T09:18:04;100108.63;;;0.82;100.00
43071;BME280;36278;47.952;21.714;2023-12-20T09:20:30;100097.13;;;0.64;100.00
43071;BME280;36278;47.952;21.714;2023-12-20T09:22:55;100094.47;;;0.66;100.00
43071;BME280;36278;47.952;21.714;2023-12-20T09:25:21;100085.19;;;0.80;100.00
43071;BME280;36278;47.952;21.714;2023-12-20T09:27:48;100066.75;;;0.85;100.00
43071;BME280;36278;47.952;21.714;2023-12-20T09:30:14;100067.06;;;0.99;100.00
43071;BME280;36278;47.952;21.714;2023-12-20T09:32:39;100059.50;;;1.13;100.00
43071;BME280;36278;47.952;21.714;2023-12-20T09:35:05;100063.72;;;1.18;100.00
43071;BME280;36278;47.952;21.714;2023-12-20T09:37:32;100050.81;;;1.15;100.00
43071;BME280;36278;47.952;21.714;2023-12-20T09:39:57;100035.00;;;1.18;100.00
43071;BME280;36278;47.952;21.714;2023-12-20T09:42:32;100040.41;;;1.13;100.00
43071;BME280;36278;47.952;21.714;2023-12-20T09:45:03;100031.09;;;1.28;100.00
43071;BME280;36278;47.952;21.714;2023-12-20T09:47:33;100032.72;;;1.51;100.00
43071;BME280;36278;47.952;21.714;2023-12-20T09:49:59;100024.94;;;1.69;100.00
43071;BME280;36278;47.952;21.714;2023-12-20T09:52:25;100025.56;;;1.56;100.00
43071;BME280;36278;47.952;21.714;2023-12-20T09:54:52;100024.63;;;1.36;100.00
43071;BME280;36278;47.952;21.714;2023-12-20T09:57:18;100024.44;;;1.21;100.00
43071;BME280;36278;47.952;21.714;2023-12-20T09:59:43;100019.09;;;1.24;100.00
43071;BME280;36278;47.952;21.714;2023-12-20T10:02:12;100013.03;;;1.44;100.00
43071;BME280;36278;47.952;21.714;2023-12-20T10:04:46;100010.47;;;1.42;100.00
43071;BME280;36278;47.952;21.714;2023-12-20T10:07:13;100005.63;;;1.53;100.00
43071;BME280;36278;47.952;21.714;2023-12-20T10:09:38;100006.09;;;1.63;100.00
43071;BME280;36278;47.952;21.714;2023-12-20T10:12:05;99987.75;;;1.64;100.00
43071;BME280;36278;47.952;21.714;2023-12-20T10:14:33;99977.66;;;1.76;100.00
43071;BME280;36278;47.952;21.714;2023-12-20T10:17:06;99968.06;;;1.76;100.00
43071;BME280;36278;47.952;21.714;2023-12-20T10:19:32;99961.50;;;1.86;100.00
43071;BME280;36278;47.952;21.714;2023-12-20T10:22:04;99953.19;;;1.97;100.00
43071;BME280;36278;47.952;21.714;2023-12-20T10:24:30;99956.16;;;2.08;100.00
43071;BME280;36278;47.952;21.714;2023-12-20T10:27:08;99933.03;;;2.18;100.00
43071;BME280;36278;47.952;21.714;2023-12-20T10:29:37;99919.53;;;2.27;100.00
43071;BME280;36278;47.952;21.714;2023-12-20T10:32:23;99925.41;;;2.32;100.00
43071;BME280;36278;47.952;21.714;2023-12-20T10:34:52;99933.56;;;2.07;100.00
43071;BME280;36278;47.952;21.714;2023-12-20T10:37:18;99940.19;;;2.14;100.00
43071;BME280;36278;47.952;21.714;2023-12-20T10:39:49;99964.06;;;1.88;100.00
43071;BME280;36278;47.952;21.714;2023-12-20T10:42:16;99957.44;;;1.81;100.00
43071;BME280;36278;47.952;21.714;2023-12-20T10:44:42;99964.25;;;2.02;100.00
43071;BME280;36278;47.952;21.714;2023-12-20T10:47:09;99951.44;;;1.98;100.00
43071;BME280;36278;47.952;21.714;2023-12-20T10:49:37;99963.69;;;1.77;100.00
43071;BME280;36278;47.952;21.714;2023-12-20T10:52:06;99943.31;;;1.85;100.00
43071;BME280;36278;47.952;21.714;2023-12-20T10:54:32;99943.22;;;1.86;100.00
43071;BME280;36278;47.952;21.714;2023-12-20T10:56:58;99935.53;;;1.64;100.00
43071;BME280;36278;47.952;21.714;2023-12-20T10:59:24;99909.84;;;1.74;100.00
43071;BME280;36278;47.952;21.714;2023-12-20T11:01:50;99922.63;;;1.80;100.00
43071;BME280;36278;47.952;21.714;2023-12-20T11:04:25;99916.31;;;2.03;100.00
43071;BME280;36278;47.952;21.714;2023-12-20T11:07:13;99914.50;;;2.05;100.00
43071;BME280;36278;47.952;21.714;2023-12-20T11:09:47;99908.91;;;2.13;100.00
43071;BME280;36278;47.952;21.714;2023-12-20T11:12:35;99897.78;;;2.27;100.00
43071;BME280;36278;47.952;21.714;2023-12-20T11:15:03;99888.13;;;2.29;100.00
43071;BME280;36278;47.952;21.714;2023-12-20T11:17:31;99880.03;;;2.16;100.00
43071;BME280;36278;47.952;21.714;2023-12-20T11:22:29;99912.81;;;2.04;100.00
43071;BME280;36278;47.952;21.714;2023-12-20T11:25:19;99918.69;;;1.72;100.00
43071;BME280;36278;47.952;21.714;2023-12-20T11:27:44;99917.94;;;1.87;100.00
43071;BME280;36278;47.952;21.714;2023-12-20T11:30:40;99889.16;;;1.32;100.00
43071;BME280;36278;47.952;21.714;2023-12-20T11:33:07;99898.50;;;1.56;100.00
43071;BME280;36278;47.952;21.714;2023-12-20T11:35:33;99909.13;;;1.52;100.00
43071;BME280;36278;47.952;21.714;2023-12-20T11:38:00;99907.88;;;1.60;100.00
43071;BME280;36278;47.952;21.714;2023-12-20T11:40:26;99923.09;;;1.11;100.00
43071;BME280;36278;47.952;21.714;2023-12-20T11:42:52;99910.94;;;1.31;100.00
43071;BME280;36278;47.952;21.714;2023-12-20T11:45:24;99922.19;;;0.92;100.00
43071;BME280;36278;47.952;21.714;2023-12-20T11:47:51;99913.81;;;1.25;100.00
43071;BME280;36278;47.952;21.714;2023-12-20T11:50:19;99930.00;;;1.33;100.00
43071;BME280;36278;47.952;21.714;2023-12-20T11:52:45;99939.03;;;1.45;100.00
43071;BME280;36278;47.952;21.714;2023-12-20T11:55:11;99911.25;;;1.44;100.00
43071;BME280;36278;47.952;21.714;2023-12-20T11:57:37;99922.06;;;0.95;100.00
43071;BME280;36278;47.952;21.714;2023-12-20T12:00:04;99905.53;;;0.54;100.00
43071;BME280;36278;47.952;21.714;2023-12-20T12:02:30;99895.78;;;0.79;100.00
43071;BME280;36278;47.952;21.714;2023-12-20T12:04:55;99894.22;;;0.96;100.00
43071;BME280;36278;47.952;21.714;2023-12-20T12:07:22;99886.56;;;1.11;100.00
43071;BME280;36278;47.952;21.714;2023-12-20T12:09:48;99873.88;;;0.83;100.00
43071;BME280;36278;47.952;21.714;2023-12-20T12:12:13;99860.44;;;0.93;100.00
43071;BME280;36278;47.952;21.714;2023-12-20T12:14:39;99854.16;;;0.97;100.00
43071;BME280;36278;47.952;21.714;2023-12-20T12:17:13;99854.78;;;0.63;100.00
43071;BME280;36278;47.952;21.714;2023-12-20T12:19:40;99844.38;;;0.83;100.00
43071;BME280;36278;47.952;21.714;2023-12-20T12:24:45;99835.53;;;1.06;100.00
43071;BME280;36278;47.952;21.714;2023-12-20T12:27:12;99826.44;;;1.15;100.00
43071;BME280;36278;47.952;21.714;2023-12-20T12:29:38;99820.66;;;1.27;100.00
43071;BME280;36278;47.952;21.714;2023-12-20T12:32:05;99807.91;;;1.39;100.00
43071;BME280;36278;47.952;21.714;2023-12-20T12:34:33;99799.16;;;1.40;100.00
43071;BME280;36278;47.952;21.714;2023-12-20T12:37:00;99791.47;;;1.56;100.00
43071;BME280;36278;47.952;21.714;2023-12-20T12:39:26;99772.75;;;1.65;100.00